Time;durP1;ratioP1;P1;durP2;ratioP2;P2;SDS_P1;SDS_P2;PMS_P1;PMS_P2;Temp;Humidity;BMP_temperature;BMP_pressure;BME280_temperature;BME280_humidity;BME280_pressure;Samples;Min_cycle;Max_cycle;Signal;HPM_P1;HPM_P2
2021/08/16 00:01:01;;;;;;;30.53;28.83;;;;;;;;;;5017556;28;20449;-68
2021/08/16 00:03:30;;;;;;;29.77;27.90;;;;;;;;;;5017604;28;20888;-69
2021/08/16 00:05:57;;;;;;;29.27;27.50;;;;;;;;;;5018110;28;20457;-69
2021/08/16 00:08:24;;;;;;;30.17;28.37;;;;;;;;;;5016764;28;20464;-69
2021/08/16 00:10:51;;;;;;;30.47;28.70;;;;;;;;;;5016437;28;20449;-68
2021/08/16 00:13:20;;;;;;;29.67;28.07;;;;;;;;;;5017406;28;21006;-68
2021/08/16 00:15:47;;;;;;;31.33;29.13;;;;;;;;;;5016793;28;20541;-69
2021/08/16 00:18:14;;;;;;;29.50;27.90;;;;;;;;;;5016999;28;20459;-69
2021/08/16 00:20:43;;;;;;;30.10;28.30;;;;;;;;;;5016233;28;20560;-69
2021/08/16 00:23:10;;;;;;;29.93;28.20;;;;;;;;;;5016849;28;20499;-69
2021/08/16 00:25:37;;;;;;;30.00;28.30;;;;;;;;;;5016837;28;20460;-69
2021/08/16 00:28:05;;;;;;;29.30;27.60;;;;;;;;;;5015561;28;20449;-69
2021/08/16 00:30:32;;;;;;;30.00;28.13;;;;;;;;;;5015347;28;20449;-69
2021/08/16 00:32:59;;;;;;;28.97;27.37;;;;;;;;;;5016421;28;20493;-70
2021/08/16 00:35:26;;;;;;;29.80;27.90;;;;;;;;;;5002899;28;20450;-68
2021/08/16 00:37:54;;;;;;;28.57;26.77;;;;;;;;;;5016705;28;20468;-69
2021/08/16 00:40:22;;;;;;;29.50;27.80;;;;;;;;;;5016124;28;20964;-69
2021/08/16 00:42:50;;;;;;;28.73;26.93;;;;;;;;;;5016580;28;20941;-69
2021/08/16 00:45:17;;;;;;;30.17;28.37;;;;;;;;;;5015881;28;20480;-69
2021/08/16 00:47:44;;;;;;;29.97;28.27;;;;;;;;;;5016221;28;20456;-69
2021/08/16 00:50:13;;;;;;;30.37;28.47;;;;;;;;;;5012636;28;20452;-69
2021/08/16 00:52:40;;;;;;;30.70;28.93;;;;;;;;;;5015470;28;20500;-69
2021/08/16 00:55:10;;;;;;;30.40;28.70;;;;;;;;;;5016024;28;20984;-69
2021/08/16 00:57:37;;;;;;;30.03;28.33;;;;;;;;;;5015937;28;20450;-69
2021/08/16 01:00:06;;;;;;;29.60;27.90;;;;;;;;;;5016167;28;20450;-66
2021/08/16 01:02:33;;;;;;;30.37;28.57;;;;;;;;;;5016053;28;20796;-69
2021/08/16 01:05:02;;;;;;;30.40;28.60;;;;;;;;;;5015627;28;20469;-69
2021/08/16 01:07:29;;;;;;;30.23;28.33;;;;;;;;;;5015008;28;20454;-69
2021/08/16 01:09:56;;;;;;;31.10;29.20;;;;;;;;;;5014840;28;20465;-68
2021/08/16 01:12:25;;;;;;;31.77;29.77;;;;;;;;;;5015945;28;20481;-69
2021/08/16 01:14:52;;;;;;;31.43;29.53;;;;;;;;;;5015307;28;20476;-68
2021/08/16 01:17:19;;;;;;;31.53;29.73;;;;;;;;;;5015671;28;20462;-68
2021/08/16 01:19:46;;;;;;;32.30;30.10;;;;;;;;;;5016055;28;20457;-69
2021/08/16 01:22:14;;;;;;;31.57;29.67;;;;;;;;;;5013967;28;20972;-68
2021/08/16 01:24:41;;;;;;;31.33;29.50;;;;;;;;;;5011109;28;21007;-68
2021/08/16 01:27:11;;;;;;;31.57;29.77;;;;;;;;;;5013895;28;20457;-69
2021/08/16 01:29:38;;;;;;;32.10;29.83;;;;;;;;;;5015253;28;20453;-69
2021/08/16 01:32:06;;;;;;;30.50;28.70;;;;;;;;;;5014921;28;20873;-68
2021/08/16 01:34:33;;;;;;;31.50;29.70;;;;;;;;;;5015040;28;20473;-66
2021/08/16 01:37:01;;;;;;;32.93;31.03;;;;;;;;;;5014672;28;20932;-68
2021/08/16 01:39:28;;;;;;;32.77;30.90;;;;;;;;;;5014731;28;20454;-68
2021/08/16 01:41:55;;;;;;;31.97;30.10;;;;;;;;;;5014525;28;20448;-68
2021/08/16 01:44:24;;;;;;;32.23;30.27;;;;;;;;;;5006258;28;20478;-68
2021/08/16 01:46:53;;;;;;;32.50;30.70;;;;;;;;;;5014936;28;20959;-67
2021/08/16 01:49:20;;;;;;;31.57;29.77;;;;;;;;;;5014621;28;20976;-68
2021/08/16 01:51:48;;;;;;;32.20;30.40;;;;;;;;;;5014647;28;20491;-68
2021/08/16 01:54:16;;;;;;;32.10;30.23;;;;;;;;;;5014118;28;20565;-69
2021/08/16 01:56:43;;;;;;;31.30;29.60;;;;;;;;;;5013901;28;20454;-69
2021/08/16 01:59:11;;;;;;;31.90;30.07;;;;;;;;;;5007232;28;20462;-68
2021/08/16 02:01:39;;;;;;;31.80;30.00;;;;;;;;;;5012776;28;20445;-67
2021/08/16 02:04:06;;;;;;;31.20;29.40;;;;;;;;;;5014046;28;20496;-69
2021/08/16 02:06:33;;;;;;;31.23;29.50;;;;;;;;;;5014440;28;20989;-68
2021/08/16 02:09:00;;;;;;;31.73;29.73;;;;;;;;;;5014738;28;20453;-69
2021/08/16 02:11:28;;;;;;;31.73;29.93;;;;;;;;;;5014356;28;20460;-69
2021/08/16 02:13:55;;;;;;;30.60;28.80;;;;;;;;;;5014456;28;20480;-69
2021/08/16 02:16:22;;;;;;;32.40;30.20;;;;;;;;;;5014913;28;20449;-69
2021/08/16 02:18:50;;;;;;;31.13;29.33;;;;;;;;;;5004493;28;20450;-69
2021/08/16 02:21:17;;;;;;;30.40;28.70;;;;;;;;;;5014354;28;20471;-69
2021/08/16 02:23:44;;;;;;;31.10;29.30;;;;;;;;;;5013867;28;20918;-68
2021/08/16 02:26:12;;;;;;;30.63;28.83;;;;;;;;;;4995252;28;20453;-69
2021/08/16 02:28:39;;;;;;;31.17;29.17;;;;;;;;;;5009128;28;20975;-69
2021/08/16 02:31:06;;;;;;;32.00;30.10;;;;;;;;;;5013260;28;20464;-69
2021/08/16 02:33:33;;;;;;;33.40;31.10;;;;;;;;;;5013914;28;20489;-69
2021/08/16 02:36:01;;;;;;;32.80;30.67;;;;;;;;;;5013010;28;20480;-69
2021/08/16 02:38:30;;;;;;;33.10;31.20;;;;;;;;;;5010982;28;20485;-70
2021/08/16 02:40:57;;;;;;;33.00;31.10;;;;;;;;;;5003130;28;20464;-68
2021/08/16 02:43:27;;;;;;;33.20;31.20;;;;;;;;;;5014106;28;20466;-70
2021/08/16 02:45:54;;;;;;;32.07;30.13;;;;;;;;;;5013099;28;20544;-70
2021/08/16 02:48:21;;;;;;;34.20;32.10;;;;;;;;;;5012578;28;20454;-69
2021/08/16 02:50:48;;;;;;;35.53;33.43;;;;;;;;;;5013056;28;20458;-70
2021/08/16 02:55:45;;;;;;;37.30;35.00;;;;;;;;;;5045755;22;20532;-70
2021/08/16 02:58:12;;;;;;;36.80;34.50;;;;;;;;;;5012765;28;20445;-68
2021/08/16 03:00:39;;;;;;;38.37;36.17;;;;;;;;;;5020042;28;20456;-69
2021/08/16 03:03:06;;;;;;;38.70;36.40;;;;;;;;;;5021719;28;20480;-68
2021/08/16 03:05:33;;;;;;;39.60;37.30;;;;;;;;;;5026147;28;20560;-67
2021/08/16 03:08:01;;;;;;;38.30;35.80;;;;;;;;;;5040913;28;20451;-69
2021/08/16 03:10:28;;;;;;;39.47;37.07;;;;;;;;;;5041656;28;20448;-69
2021/08/16 03:12:57;;;;;;;37.00;34.80;;;;;;;;;;5022067;28;20481;-69
2021/08/16 03:15:24;;;;;;;35.50;33.40;;;;;;;;;;5025471;28;20473;-69
2021/08/16 03:17:51;;;;;;;36.80;34.57;;;;;;;;;;5017534;28;20961;-69
2021/08/16 03:20:19;;;;;;;38.03;35.93;;;;;;;;;;5013203;28;20449;-68
2021/08/16 03:22:46;;;;;;;37.70;35.30;;;;;;;;;;5010716;28;20450;-69
2021/08/16 03:25:13;;;;;;;35.83;33.73;;;;;;;;;;5022816;28;20476;-68
2021/08/16 03:27:41;;;;;;;37.37;35.10;;;;;;;;;;5031179;28;20981;-69
2021/08/16 03:30:10;;;;;;;37.37;35.17;;;;;;;;;;5030151;28;20963;-68
2021/08/16 03:32:38;;;;;;;37.80;35.50;;;;;;;;;;5025086;28;20485;-69
2021/08/16 03:35:05;;;;;;;38.00;35.70;;;;;;;;;;5031198;28;21013;-68
2021/08/16 03:37:34;;;;;;;38.13;35.80;;;;;;;;;;5005418;28;20450;-69
2021/08/16 03:40:02;;;;;;;38.90;36.50;;;;;;;;;;5012430;28;20460;-67
2021/08/16 03:42:30;;;;;;;40.43;37.83;;;;;;;;;;5023230;28;20445;-67
2021/08/16 03:44:57;;;;;;;39.90;37.63;;;;;;;;;;5033109;28;20473;-67
2021/08/16 03:47:25;;;;;;;39.53;37.30;;;;;;;;;;5013650;28;20960;-69
2021/08/16 03:49:54;;;;;;;40.57;38.10;;;;;;;;;;5013072;28;20456;-69
2021/08/16 03:52:21;;;;;;;40.00;37.70;;;;;;;;;;5014122;28;20485;-69
2021/08/16 03:54:48;;;;;;;40.60;38.00;;;;;;;;;;5012274;28;20478;-68
2021/08/16 03:57:15;;;;;;;42.40;39.80;;;;;;;;;;5012821;28;20457;-69
2021/08/16 03:59:43;;;;;;;44.47;41.77;;;;;;;;;;5018843;28;20446;-67
2021/08/16 04:02:10;;;;;;;44.23;41.60;;;;;;;;;;5012400;28;20457;-68
2021/08/16 04:04:38;;;;;;;45.20;42.30;;;;;;;;;;5012390;28;20491;-69
2021/08/16 04:07:05;;;;;;;46.30;43.17;;;;;;;;;;5012606;28;20499;-69
2021/08/16 04:09:32;;;;;;;45.60;42.50;;;;;;;;;;5012201;28;20970;-69
2021/08/16 04:11:59;;;;;;;46.60;43.50;;;;;;;;;;5012484;28;20449;-69
2021/08/16 04:14:27;;;;;;;46.77;43.73;;;;;;;;;;5011714;28;20473;-68
2021/08/16 04:16:54;;;;;;;162.70;155.33;;;;;;;;;;5002379;28;20493;-68
2021/08/16 04:19:21;;;;;;;184.83;175.43;;;;;;;;;;5031807;28;20547;-69
2021/08/16 04:21:49;;;;;;;165.73;156.23;;;;;;;;;;5011732;28;20449;-69
2021/08/16 04:24:17;;;;;;;166.13;156.43;;;;;;;;;;5020364;28;20857;-69
2021/08/16 04:26:44;;;;;;;175.63;165.47;;;;;;;;;;5035078;28;20448;-69
2021/08/16 04:29:11;;;;;;;196.70;185.60;;;;;;;;;;5034409;28;20467;-66
2021/08/16 04:31:38;;;;;;;226.03;214.13;;;;;;;;;;5020496;28;20460;-67
2021/08/16 04:34:05;;;;;;;224.07;211.30;;;;;;;;;;5028502;28;20487;-66
2021/08/16 04:36:32;;;;;;;248.40;234.97;;;;;;;;;;5035035;28;20453;-69
2021/08/16 04:39:01;;;;;;;242.30;229.10;;;;;;;;;;5034502;28;20453;-68
2021/08/16 04:41:28;;;;;;;254.23;240.23;;;;;;;;;;5032736;28;20790;-67
2021/08/16 04:43:55;;;;;;;241.33;228.20;;;;;;;;;;5020285;28;20468;-68
2021/08/16 04:46:22;;;;;;;248.83;234.80;;;;;;;;;;5034732;28;20820;-68
2021/08/16 04:48:49;;;;;;;254.00;239.97;;;;;;;;;;5033860;28;20450;-68
2021/08/16 04:51:16;;;;;;;231.67;218.07;;;;;;;;;;5022215;28;20453;-68
2021/08/16 04:53:43;;;;;;;226.03;212.73;;;;;;;;;;5034366;28;20506;-68
2021/08/16 04:56:12;;;;;;;240.27;225.93;;;;;;;;;;5034311;28;20545;-68
2021/08/16 04:58:39;;;;;;;247.53;232.90;;;;;;;;;;5019406;28;20952;-67
2021/08/16 05:01:06;;;;;;;251.03;235.93;;;;;;;;;;5032588;28;20461;-67
2021/08/16 05:03:33;;;;;;;254.37;239.57;;;;;;;;;;5020356;28;20897;-68
2021/08/16 05:06:06;;;;;;;247.93;232.90;;;;;;;;;;5014708;28;20800;-67
2021/08/16 05:08:33;;;;;;;253.43;237.50;;;;;;;;;;5028411;28;20441;-68
2021/08/16 05:11:00;;;;;;;253.10;237.70;;;;;;;;;;5034200;28;20452;-67
2021/08/16 05:13:29;;;;;;;279.93;263.57;;;;;;;;;;5034448;28;20492;-67
2021/08/16 05:15:56;;;;;;;324.63;302.83;;;;;;;;;;5033916;28;20459;-67
2021/08/16 05:18:23;;;;;;;260.40;245.40;;;;;;;;;;5020272;28;20460;-67
2021/08/16 05:20:51;;;;;;;258.77;241.87;;;;;;;;;;5027105;28;20452;-66
2021/08/16 05:23:19;;;;;;;266.77;250.77;;;;;;;;;;5034101;28;20455;-67
2021/08/16 05:25:46;;;;;;;267.57;251.13;;;;;;;;;;5019467;28;20457;-69
2021/08/16 05:28:13;;;;;;;264.67;248.07;;;;;;;;;;5014397;28;20458;-70
2021/08/16 05:30:42;;;;;;;261.63;244.43;;;;;;;;;;5023858;28;20453;-67
2021/08/16 05:33:09;;;;;;;271.53;253.73;;;;;;;;;;5034185;28;20488;-69
2021/08/16 05:35:36;;;;;;;282.93;266.27;;;;;;;;;;5017445;28;20842;-70
2021/08/16 05:38:04;;;;;;;271.10;253.70;;;;;;;;;;5013822;28;20823;-69
2021/08/16 05:40:31;;;;;;;291.37;274.03;;;;;;;;;;5028043;28;20463;-68
2021/08/16 05:42:58;;;;;;;291.60;275.30;;;;;;;;;;5033542;28;20940;-69
2021/08/16 05:45:25;;;;;;;263.93;248.23;;;;;;;;;;5021145;28;20993;-68
2021/08/16 05:47:53;;;;;;;264.10;247.93;;;;;;;;;;5013920;28;20449;-69
2021/08/16 05:50:22;;;;;;;281.70;264.70;;;;;;;;;;5013925;28;20833;-70
2021/08/16 05:52:49;;;;;;;279.80;263.00;;;;;;;;;;5022195;28;20485;-66
2021/08/16 05:55:16;;;;;;;285.57;268.80;;;;;;;;;;5019891;28;20481;-67
2021/08/16 05:57:43;;;;;;;292.27;275.03;;;;;;;;;;5019186;28;20446;-65
2021/08/16 06:00:11;;;;;;;302.47;285.07;;;;;;;;;;5013385;28;20453;-66
2021/08/16 06:02:38;;;;;;;298.80;282.40;;;;;;;;;;5016680;28;20452;-66
2021/08/16 06:05:07;;;;;;;298.90;281.70;;;;;;;;;;5030830;28;20480;-68
2021/08/16 06:07:34;;;;;;;309.67;292.13;;;;;;;;;;5030743;28;20449;-66
2021/08/16 06:10:02;;;;;;;286.90;270.60;;;;;;;;;;5014155;28;20453;-66
2021/08/16 06:12:29;;;;;;;291.60;275.30;;;;;;;;;;5012516;28;20457;-67
2021/08/16 06:14:56;;;;;;;280.93;264.63;;;;;;;;;;5013688;28;20489;-69
2021/08/16 06:17:24;;;;;;;293.53;276.73;;;;;;;;;;5013502;28;20450;-65
2021/08/16 06:19:51;;;;;;;310.30;293.37;;;;;;;;;;5019161;28;20460;-66
2021/08/16 06:22:19;;;;;;;284.07;267.13;;;;;;;;;;5029910;28;20449;-67
2021/08/16 06:24:46;;;;;;;305.07;288.07;;;;;;;;;;5010364;28;20505;-66
2021/08/16 06:27:13;;;;;;;330.97;313.87;;;;;;;;;;5014631;28;20460;-66
2021/08/16 06:29:40;;;;;;;339.23;320.93;;;;;;;;;;5017523;28;20446;-66
2021/08/16 06:32:08;;;;;;;339.40;322.80;;;;;;;;;;5017619;28;20454;-66
2021/08/16 06:34:39;;;;;;;329.57;312.50;;;;;;;;;;5013211;28;20485;-66
2021/08/16 06:37:06;;;;;;;300.20;285.13;;;;;;;;;;5013740;28;20796;-67
2021/08/16 06:39:34;;;;;;;280.30;266.20;;;;;;;;;;5014121;28;20453;-66
2021/08/16 06:42:02;;;;;;;271.97;258.43;;;;;;;;;;5027334;28;20448;-66
2021/08/16 06:44:29;;;;;;;256.50;243.80;;;;;;;;;;5033057;28;20850;-67
2021/08/16 06:46:56;;;;;;;239.77;228.47;;;;;;;;;;5020634;28;20548;-66
2021/08/16 06:49:24;;;;;;;235.17;224.10;;;;;;;;;;5033150;28;20542;-67
2021/08/16 06:51:51;;;;;;;223.33;213.13;;;;;;;;;;5031511;28;20448;-66
2021/08/16 06:54:23;;;;;;;209.40;199.60;;;;;;;;;;5010200;28;20494;-67
2021/08/16 06:56:52;;;;;;;199.80;190.50;;;;;;;;;;5016451;28;20923;-66
2021/08/16 06:59:19;;;;;;;189.77;180.67;;;;;;;;;;5033484;28;20951;-68
2021/08/16 07:01:46;;;;;;;168.77;160.83;;;;;;;;;;5031683;28;20448;-66
2021/08/16 07:04:13;;;;;;;159.47;150.80;;;;;;;;;;5020761;28;20497;-66
2021/08/16 07:06:40;;;;;;;161.00;153.30;;;;;;;;;;5013405;28;20816;-66
2021/08/16 07:09:08;;;;;;;142.27;135.17;;;;;;;;;;5013574;28;20552;-67
2021/08/16 07:11:35;;;;;;;135.17;128.40;;;;;;;;;;5012371;28;20449;-68
2021/08/16 07:14:03;;;;;;;134.53;128.03;;;;;;;;;;5011974;28;20496;-66
2021/08/16 07:16:30;;;;;;;124.37;117.97;;;;;;;;;;5009653;28;20468;-66
2021/08/16 07:18:57;;;;;;;120.40;114.10;;;;;;;;;;5013326;28;20456;-67
2021/08/16 07:21:24;;;;;;;117.50;111.30;;;;;;;;;;5012767;28;20460;-66
2021/08/16 07:23:52;;;;;;;133.33;127.03;;;;;;;;;;5017545;28;20469;-67
2021/08/16 07:26:19;;;;;;;122.83;116.60;;;;;;;;;;5013109;28;20450;-67
2021/08/16 07:28:46;;;;;;;126.07;119.53;;;;;;;;;;5009845;28;20456;-68
2021/08/16 07:31:15;;;;;;;162.03;153.47;;;;;;;;;;5013272;28;20859;-70
2021/08/16 07:33:42;;;;;;;184.07;174.97;;;;;;;;;;5013860;28;20489;-70
2021/08/16 07:36:10;;;;;;;179.93;171.17;;;;;;;;;;5012648;28;20948;-72
2021/08/16 07:38:37;;;;;;;212.47;202.43;;;;;;;;;;5012566;28;20453;-68
2021/08/16 07:41:04;;;;;;;232.37;221.97;;;;;;;;;;5026919;28;20449;-69
2021/08/16 07:43:31;;;;;;;240.33;229.53;;;;;;;;;;5032203;28;20463;-68
2021/08/16 07:45:58;;;;;;;236.60;224.90;;;;;;;;;;5018588;28;20460;-69
2021/08/16 07:48:27;;;;;;;259.43;247.13;;;;;;;;;;4993327;28;20453;-69
2021/08/16 07:50:54;;;;;;;256.47;244.67;;;;;;;;;;5016711;28;20457;-67
2021/08/16 07:53:21;;;;;;;254.17;241.77;;;;;;;;;;5005360;28;20949;-68
2021/08/16 07:55:48;;;;;;;257.87;245.67;;;;;;;;;;5024967;28;20452;-65
2021/08/16 07:58:15;;;;;;;248.10;235.60;;;;;;;;;;5019598;28;20470;-66
2021/08/16 08:00:42;;;;;;;245.03;233.37;;;;;;;;;;5025267;28;20448;-65
2021/08/16 08:03:10;;;;;;;233.40;222.03;;;;;;;;;;5017022;28;20445;-65
2021/08/16 08:05:38;;;;;;;230.30;219.20;;;;;;;;;;5018904;28;20469;-65
2021/08/16 08:08:06;;;;;;;227.37;216.67;;;;;;;;;;5022030;28;20441;-65
2021/08/16 08:10:33;;;;;;;237.97;226.20;;;;;;;;;;5020922;28;20445;-64
2021/08/16 08:13:00;;;;;;;215.43;205.23;;;;;;;;;;4997647;28;20510;-65
2021/08/16 08:15:27;;;;;;;223.90;213.60;;;;;;;;;;5015292;28;20489;-65
2021/08/16 08:17:54;;;;;;;192.40;182.87;;;;;;;;;;5036493;28;20449;-64
2021/08/16 08:20:21;;;;;;;193.23;184.33;;;;;;;;;;5035132;28;20952;-65
2021/08/16 08:22:50;;;;;;;162.83;155.13;;;;;;;;;;5022596;28;20453;-65
2021/08/16 08:25:17;;;;;;;144.30;137.10;;;;;;;;;;5017911;28;20473;-64
2021/08/16 08:27:44;;;;;;;134.07;127.43;;;;;;;;;;5015285;28;20441;-65
2021/08/16 08:30:12;;;;;;;133.70;127.50;;;;;;;;;;5022214;28;20460;-66
2021/08/16 08:32:48;;;;;;;118.87;112.77;;;;;;;;;;5020416;28;20549;-65
2021/08/16 08:35:16;;;;;;;109.10;103.40;;;;;;;;;;5016082;28;20485;-65
2021/08/16 08:37:43;;;;;;;109.33;103.40;;;;;;;;;;5015764;28;20453;-63
2021/08/16 08:40:12;;;;;;;105.63;100.07;;;;;;;;;;5013159;28;20472;-65
2021/08/16 08:42:39;;;;;;;98.40;93.20;;;;;;;;;;5016107;28;20446;-65
2021/08/16 08:45:07;;;;;;;89.93;85.13;;;;;;;;;;5015469;28;20473;-65
2021/08/16 08:47:35;;;;;;;83.30;78.70;;;;;;;;;;4999456;28;20839;-64
2021/08/16 08:50:02;;;;;;;79.23;74.83;;;;;;;;;;5014530;28;20449;-65
2021/08/16 08:52:29;;;;;;;77.63;73.17;;;;;;;;;;5015434;28;20446;-65
2021/08/16 08:54:57;;;;;;;77.77;73.27;;;;;;;;;;4995728;28;20498;-65
2021/08/16 08:57:27;;;;;;;79.37;74.97;;;;;;;;;;5010188;28;20452;-65
2021/08/16 08:59:55;;;;;;;79.60;75.17;;;;;;;;;;5029715;22;20494;-61
2021/08/16 09:02:22;;;;;;;83.43;79.03;;;;;;;;;;5013743;28;20454;-63
2021/08/16 09:04:50;;;;;;;84.90;79.80;;;;;;;;;;5013737;28;20453;-65
2021/08/16 09:07:17;;;;;;;95.23;89.97;;;;;;;;;;5015035;28;20864;-64
2021/08/16 09:09:53;;;;;;;115.20;109.53;;;;;;;;;;5014199;28;20887;-63
2021/08/16 09:12:29;;;;;;;123.90;117.90;;;;;;;;;;5014067;28;20560;-63
2021/08/16 09:14:56;;;;;;;131.77;124.60;;;;;;;;;;5013345;28;20473;-66
2021/08/16 09:17:33;;;;;;;154.97;147.47;;;;;;;;;;5014254;28;20457;-63
2021/08/16 09:20:00;;;;;;;182.77;174.67;;;;;;;;;;5016725;28;20473;-65
2021/08/16 09:22:32;;;;;;;198.27;189.33;;;;;;;;;;5013285;28;20460;-62
2021/08/16 09:25:00;;;;;;;203.63;194.43;;;;;;;;;;5014174;28;20452;-63
2021/08/16 09:27:29;;;;;;;223.00;213.37;;;;;;;;;;5014569;28;20825;-64
2021/08/16 09:29:56;;;;;;;240.67;230.27;;;;;;;;;;5014531;28;20470;-63
2021/08/16 09:32:31;;;;;;;223.63;214.07;;;;;;;;;;5010891;28;20964;-63
2021/08/16 09:35:05;;;;;;;245.20;234.37;;;;;;;;;;5014624;28;20473;-63
2021/08/16 09:37:32;;;;;;;247.03;236.33;;;;;;;;;;5013564;28;20940;-63
2021/08/16 09:40:00;;;;;;;239.43;229.13;;;;;;;;;;5010638;28;20474;-63
2021/08/16 09:42:27;;;;;;;211.60;202.17;;;;;;;;;;5012358;28;20454;-64
2021/08/16 09:44:57;;;;;;;287.30;273.97;;;;;;;;;;5012850;28;20460;-63
2021/08/16 09:47:24;;;;;;;277.93;265.90;;;;;;;;;;5013346;28;20803;-61
2021/08/16 09:50:00;;;;;;;273.57;261.63;;;;;;;;;;5013219;28;20484;-61
2021/08/16 09:52:32;;;;;;;261.07;250.03;;;;;;;;;;5012336;28;20460;-61
2021/08/16 09:54:59;;;;;;;259.77;248.43;;;;;;;;;;5011967;28;20516;-63
2021/08/16 09:57:27;;;;;;;214.80;205.47;;;;;;;;;;5013160;28;20462;-63
2021/08/16 09:59:55;;;;;;;196.00;187.37;;;;;;;;;;5011887;28;20568;-64
2021/08/16 10:02:26;;;;;;;189.13;180.30;;;;;;;;;;5012903;28;20488;-63
2021/08/16 10:04:55;;;;;;;167.70;159.60;;;;;;;;;;5012980;28;20450;-64
2021/08/16 10:07:24;;;;;;;169.00;160.40;;;;;;;;;;5012475;28;20815;-63
2021/08/16 10:09:51;;;;;;;164.20;156.30;;;;;;;;;;5012409;28;20481;-64
2021/08/16 10:12:19;;;;;;;153.67;146.40;;;;;;;;;;5012440;28;20954;-64
2021/08/16 10:14:47;;;;;;;174.30;166.13;;;;;;;;;;5012651;28;20477;-63
2021/08/16 10:17:14;;;;;;;178.97;170.37;;;;;;;;;;5019647;28;20464;-64
2021/08/16 10:19:43;;;;;;;161.87;154.47;;;;;;;;;;5012917;28;20470;-64
2021/08/16 10:22:11;;;;;;;153.33;146.23;;;;;;;;;;5011564;28;20956;-63
2021/08/16 10:24:38;;;;;;;158.90;151.50;;;;;;;;;;5013068;28;20453;-63
2021/08/16 10:27:07;;;;;;;147.33;140.50;;;;;;;;;;5012528;28;20450;-63
2021/08/16 10:29:35;;;;;;;150.90;143.87;;;;;;;;;;5011868;28;20516;-63
2021/08/16 10:32:02;;;;;;;196.00;187.50;;;;;;;;;;5012261;28;20458;-64
2021/08/16 10:34:30;;;;;;;230.90;220.87;;;;;;;;;;5012878;28;20488;-62
2021/08/16 10:37:00;;;;;;;270.97;258.97;;;;;;;;;;5012176;28;20534;-64
2021/08/16 10:39:34;;;;;;;291.97;279.23;;;;;;;;;;4992697;28;20993;-62
2021/08/16 10:42:11;;;;;;;297.37;282.83;;;;;;;;;;5008153;28;20460;-62
2021/08/16 10:44:39;;;;;;;300.93;286.43;;;;;;;;;;5012418;28;20454;-63
2021/08/16 10:47:06;;;;;;;282.93;268.93;;;;;;;;;;5012313;28;20500;-62
2021/08/16 10:49:34;;;;;;;296.57;280.17;;;;;;;;;;5012724;28;20479;-62
2021/08/16 10:52:03;;;;;;;311.63;296.33;;;;;;;;;;5011628;28;20453;-62
2021/08/16 10:54:31;;;;;;;307.13;290.43;;;;;;;;;;5012389;28;20481;-62
2021/08/16 10:56:59;;;;;;;293.53;277.03;;;;;;;;;;5012655;28;20457;-63
2021/08/16 10:59:28;;;;;;;308.20;291.30;;;;;;;;;;5012067;28;21015;-62
2021/08/16 11:01:55;;;;;;;312.33;294.90;;;;;;;;;;5014130;28;20454;-62
2021/08/16 11:04:29;;;;;;;313.67;297.10;;;;;;;;;;5011809;28;20481;-63
2021/08/16 11:06:59;;;;;;;303.10;287.20;;;;;;;;;;5011890;28;20449;-62
2021/08/16 11:09:29;;;;;;;320.80;304.93;;;;;;;;;;5009734;28;20473;-62
2021/08/16 11:12:00;;;;;;;326.67;309.43;;;;;;;;;;4991624;28;20461;-62
2021/08/16 11:14:28;;;;;;;307.37;291.40;;;;;;;;;;4992466;28;20485;-62
2021/08/16 11:16:55;;;;;;;307.27;291.47;;;;;;;;;;5011918;28;20663;-62
2021/08/16 11:19:23;;;;;;;312.60;297.63;;;;;;;;;;5021672;28;20473;-62
2021/08/16 11:21:57;;;;;;;264.03;251.13;;;;;;;;;;5010934;28;20531;-62
2021/08/16 11:24:30;;;;;;;270.77;258.07;;;;;;;;;;4994789;28;20461;-62
2021/08/16 11:26:58;;;;;;;267.87;256.67;;;;;;;;;;5013811;28;20450;-63
2021/08/16 11:29:26;;;;;;;259.33;247.83;;;;;;;;;;5016973;28;20469;-63
2021/08/16 11:31:58;;;;;;;256.87;245.37;;;;;;;;;;5015962;28;20446;-63
2021/08/16 11:34:25;;;;;;;231.37;220.77;;;;;;;;;;5019868;28;20545;-64
2021/08/16 11:36:52;;;;;;;269.97;259.13;;;;;;;;;;5020440;28;20947;-62
2021/08/16 11:39:29;;;;;;;278.47;267.33;;;;;;;;;;5017101;28;20484;-63
2021/08/16 11:41:57;;;;;;;303.93;291.47;;;;;;;;;;5016287;28;20452;-63
2021/08/16 11:44:25;;;;;;;312.73;299.43;;;;;;;;;;5016060;28;20464;-63
2021/08/16 11:46:52;;;;;;;317.70;303.60;;;;;;;;;;5016449;28;20453;-63
2021/08/16 11:49:20;;;;;;;315.07;300.87;;;;;;;;;;5025203;28;20520;-63
2021/08/16 11:51:47;;;;;;;278.63;264.57;;;;;;;;;;5028466;28;20549;-63
2021/08/16 11:54:25;;;;;;;326.90;310.70;;;;;;;;;;5015957;28;20454;-63
2021/08/16 11:56:54;;;;;;;329.77;313.17;;;;;;;;;;5015196;28;20920;-63
2021/08/16 11:59:21;;;;;;;278.23;262.43;;;;;;;;;;5015688;28;20481;-63
2021/08/16 12:01:48;;;;;;;193.80;183.10;;;;;;;;;;5014794;28;20449;-65
2021/08/16 12:04:15;;;;;;;210.50;199.60;;;;;;;;;;5015191;28;20449;-65
2021/08/16 12:06:43;;;;;;;203.63;192.97;;;;;;;;;;5023639;28;20455;-66
2021/08/16 12:09:10;;;;;;;154.20;144.40;;;;;;;;;;5034887;28;20467;-66
2021/08/16 12:11:38;;;;;;;161.67;152.07;;;;;;;;;;5017650;28;20492;-66
2021/08/16 12:14:06;;;;;;;169.23;159.20;;;;;;;;;;5014677;28;20457;-66
2021/08/16 12:16:34;;;;;;;155.53;145.33;;;;;;;;;;5014333;28;20496;-66
2021/08/16 12:19:02;;;;;;;144.70;135.00;;;;;;;;;;5015220;28;20477;-66
2021/08/16 12:21:29;;;;;;;152.47;142.93;;;;;;;;;;5013852;28;20465;-66
2021/08/16 12:23:58;;;;;;;169.07;158.57;;;;;;;;;;5014843;28;20441;-66
2021/08/16 12:26:35;;;;;;;146.63;136.93;;;;;;;;;;5014323;28;20565;-66
2021/08/16 12:29:02;;;;;;;137.63;128.63;;;;;;;;;;5013901;28;21006;-66
2021/08/16 12:31:32;;;;;;;138.40;129.20;;;;;;;;;;5013224;28;20453;-66
2021/08/16 12:34:01;;;;;;;145.80;136.40;;;;;;;;;;5014221;28;20457;-68
2021/08/16 12:36:29;;;;;;;127.03;118.73;;;;;;;;;;5014719;28;20481;-69
2021/08/16 12:39:01;;;;;;;140.77;131.30;;;;;;;;;;5014032;28;20481;-69
2021/08/16 12:41:29;;;;;;;140.10;130.93;;;;;;;;;;5014113;28;21009;-66
2021/08/16 12:43:56;;;;;;;134.23;125.53;;;;;;;;;;5013165;28;20457;-66
2021/08/16 12:46:32;;;;;;;141.73;132.40;;;;;;;;;;5013549;28;20529;-67
2021/08/16 12:48:59;;;;;;;135.33;125.90;;;;;;;;;;5011075;28;20484;-67
2021/08/16 12:51:27;;;;;;;129.63;120.83;;;;;;;;;;5027674;28;21014;-66
2021/08/16 12:53:57;;;;;;;128.40;119.33;;;;;;;;;;5014312;28;20453;-66
2021/08/16 12:56:25;;;;;;;128.87;119.87;;;;;;;;;;5014458;28;20494;-66
2021/08/16 12:58:52;;;;;;;125.60;117.60;;;;;;;;;;5013726;28;20968;-66
2021/08/16 13:01:19;;;;;;;129.30;120.70;;;;;;;;;;5014091;28;20425;-66
2021/08/16 13:03:48;;;;;;;125.63;117.47;;;;;;;;;;5013485;28;21003;-66
2021/08/16 13:06:15;;;;;;;127.90;119.30;;;;;;;;;;5013612;28;20458;-66
2021/08/16 13:08:42;;;;;;;127.70;119.50;;;;;;;;;;5013083;28;20953;-66
2021/08/16 13:11:11;;;;;;;125.43;117.33;;;;;;;;;;5014271;28;20449;-67
2021/08/16 13:13:38;;;;;;;118.20;110.07;;;;;;;;;;5013964;28;20492;-66
2021/08/16 13:16:05;;;;;;;115.00;107.60;;;;;;;;;;5013989;28;20992;-66
2021/08/16 13:18:32;;;;;;;124.60;116.90;;;;;;;;;;5013181;28;20949;-66
2021/08/16 13:21:01;;;;;;;118.43;110.33;;;;;;;;;;5013898;28;20450;-67
2021/08/16 13:23:29;;;;;;;119.53;111.60;;;;;;;;;;5019924;28;20867;-66
2021/08/16 13:25:56;;;;;;;131.87;122.97;;;;;;;;;;5021703;28;20450;-66
2021/08/16 13:28:24;;;;;;;123.30;114.80;;;;;;;;;;5013571;28;20941;-64
2021/08/16 13:30:51;;;;;;;131.60;122.73;;;;;;;;;;5013121;28;20473;-65
2021/08/16 13:33:18;;;;;;;120.77;112.37;;;;;;;;;;5013566;28;20458;-65
2021/08/16 13:35:45;;;;;;;128.47;119.87;;;;;;;;;;5013527;28;20492;-65
2021/08/16 13:38:14;;;;;;;152.50;143.80;;;;;;;;;;5019732;28;20457;-66
2021/08/16 13:40:41;;;;;;;145.23;135.97;;;;;;;;;;5028749;28;20474;-65
2021/08/16 13:43:08;;;;;;;132.87;124.67;;;;;;;;;;5013659;28;20485;-65
2021/08/16 13:45:35;;;;;;;133.77;124.73;;;;;;;;;;5012968;28;20481;-65
2021/08/16 13:48:02;;;;;;;137.60;128.50;;;;;;;;;;5013558;28;20453;-65
2021/08/16 13:50:30;;;;;;;147.97;138.60;;;;;;;;;;5012937;28;20469;-65
2021/08/16 13:52:57;;;;;;;147.90;138.43;;;;;;;;;;5011808;28;20449;-67
2021/08/16 13:55:27;;;;;;;149.63;140.53;;;;;;;;;;5012892;28;20473;-65
2021/08/16 13:57:54;;;;;;;149.30;139.50;;;;;;;;;;5008888;28;20468;-65
2021/08/16 14:00:21;;;;;;;162.17;151.77;;;;;;;;;;4995498;28;20504;-65
2021/08/16 14:02:49;;;;;;;159.90;150.10;;;;;;;;;;5009445;28;20472;-65
2021/08/16 14:05:16;;;;;;;169.77;159.47;;;;;;;;;;5011946;28;20465;-65
2021/08/16 14:07:43;;;;;;;148.73;139.00;;;;;;;;;;5008413;28;20470;-65